createdAt,value
2019-03-16T00:01:07.182Z,4.65
2019-03-16T00:07:02.197Z,3.93
2019-03-16T00:12:57.170Z,3.74
2019-03-16T00:18:52.175Z,4.22
2019-03-16T00:24:47.208Z,3.8
2019-03-16T00:30:42.189Z,4.18
2019-03-16T00:36:37.191Z,4.03
2019-03-16T00:42:32.243Z,4.52
2019-03-16T00:48:27.180Z,6.75
2019-03-16T00:54:22.183Z,7.24
2019-03-16T01:00:17.207Z,5.36
2019-03-16T01:06:12.207Z,5.03
2019-03-16T01:12:07.219Z,4.67
2019-03-16T01:18:02.240Z,4.59
2019-03-16T01:23:57.217Z,5.17
2019-03-16T01:29:52.215Z,4.91
2019-03-16T01:35:47.249Z,6.3
2019-03-16T01:41:42.236Z,4.65
2019-03-16T01:47:37.270Z,5.21
2019-03-16T01:53:32.270Z,5.93
2019-03-16T01:59:27.231Z,5.58
2019-03-16T02:05:22.234Z,5.64
2019-03-16T02:11:17.246Z,5.64
2019-03-16T02:17:12.252Z,4.96
2019-03-16T02:23:07.260Z,5.88
2019-03-16T02:29:02.259Z,4.73
2019-03-16T02:34:57.328Z,5.19
2019-03-16T02:40:52.262Z,4.83
2019-03-16T02:46:47.265Z,4.47
2019-03-16T02:52:42.274Z,3.87
2019-03-16T02:58:37.265Z,4.72
2019-03-16T03:04:32.289Z,3.63
2019-03-16T03:10:27.279Z,3.55
2019-03-16T03:16:22.293Z,4.41
2019-03-16T03:22:17.279Z,4.19
2019-03-16T03:28:12.284Z,3.66
2019-03-16T03:34:07.360Z,3.22
2019-03-16T03:40:02.300Z,4.43
2019-03-16T03:45:57.295Z,4.75
2019-03-16T03:51:52.315Z,5.52
2019-03-16T03:57:47.300Z,4.97
2019-03-16T04:03:42.349Z,4.71
2019-03-16T04:09:37.317Z,5
2019-03-16T04:15:32.310Z,4.25
2019-03-16T04:21:27.341Z,3.84
2019-03-16T04:27:22.315Z,3.43
2019-03-16T04:33:17.326Z,3.63
2019-03-16T04:39:12.344Z,4.14
2019-03-16T04:45:07.402Z,4.52
2019-03-16T04:51:02.332Z,4.19
2019-03-16T04:56:57.377Z,3.88
2019-03-16T05:02:52.338Z,4.1
2019-03-16T05:08:47.363Z,4.44
2019-03-16T05:14:42.354Z,4.78
2019-03-16T05:20:37.366Z,5.36
2019-03-16T05:26:32.338Z,5.7
2019-03-16T05:32:27.389Z,4.21
2019-03-16T05:38:22.489Z,3.76
2019-03-16T05:44:17.375Z,4.54
2019-03-16T05:50:12.373Z,4.89
2019-03-16T05:56:07.382Z,4.84
2019-03-16T06:02:02.379Z,5.29
2019-03-16T06:07:57.393Z,5.67
2019-03-16T06:13:52.383Z,5.65
2019-03-16T06:19:47.404Z,5.67
2019-03-16T06:25:42.415Z,5.8
2019-03-16T06:31:37.401Z,6.17
2019-03-16T06:37:32.398Z,9.72
2019-03-16T06:43:27.411Z,11.34
2019-03-16T06:49:22.418Z,11.42
2019-03-16T06:55:17.433Z,10.62
2019-03-16T07:01:12.420Z,11.98
2019-03-16T07:07:07.417Z,12.97
2019-03-16T07:13:02.450Z,12.97
2019-03-16T07:18:58.891Z,10.77
2019-03-16T07:24:52.406Z,10.51
2019-03-16T07:30:47.447Z,9.77
2019-03-16T07:36:42.436Z,11.06
2019-03-16T07:42:37.428Z,11.47
2019-03-16T07:48:32.481Z,10.91
2019-03-16T07:54:27.549Z,10.95
2019-03-16T08:00:22.435Z,11.88
2019-03-16T08:06:17.449Z,9.8
2019-03-16T08:12:12.486Z,10.44
2019-03-16T08:18:07.769Z,8.67
2019-03-16T08:24:02.456Z,9.61
2019-03-16T08:29:57.479Z,9.87
2019-03-16T08:35:52.500Z,8.7
2019-03-16T08:41:47.469Z,8.72
2019-03-16T08:47:42.513Z,9.03
2019-03-16T08:53:37.519Z,8.49
2019-03-16T08:59:32.481Z,7.63
2019-03-16T09:05:27.552Z,8.71
2019-03-16T09:11:22.503Z,7.17
2019-03-16T09:17:17.492Z,7.57
2019-03-16T09:23:12.516Z,6.63
2019-03-16T09:29:14.651Z,7.54
2019-03-16T09:35:02.508Z,7.1
2019-03-16T09:40:57.521Z,6.18
2019-03-16T09:46:52.522Z,6.42
2019-03-16T09:52:47.512Z,5.02
2019-03-16T09:58:42.523Z,5.22
2019-03-16T10:04:37.522Z,5.9
2019-03-16T10:10:32.538Z,5.64
2019-03-16T10:16:27.545Z,5.52
2019-03-16T10:22:22.551Z,6.41
2019-03-16T10:28:17.549Z,6.41
2019-03-16T10:34:12.549Z,6.67
2019-03-16T10:40:07.579Z,6.73
2019-03-16T10:46:02.571Z,5.75
2019-03-16T10:51:57.606Z,5.99
2019-03-16T10:57:52.569Z,6.7
2019-03-16T11:03:47.583Z,5.98
2019-03-16T11:09:42.588Z,6.52
2019-03-16T11:15:37.575Z,6.06
2019-03-16T11:21:32.591Z,5.73
2019-03-16T11:27:27.571Z,6.3
2019-03-16T11:33:22.585Z,6.18
2019-03-16T11:39:17.589Z,6.43
2019-03-16T11:45:12.597Z,5.87
2019-03-16T11:51:07.642Z,6.53
2019-03-16T11:57:02.605Z,6.18
2019-03-16T12:02:57.614Z,6.23
2019-03-16T12:08:52.629Z,6.55
2019-03-16T12:14:47.622Z,6.25
2019-03-16T12:20:42.646Z,6.61
2019-03-16T12:26:37.632Z,5.51
2019-03-16T12:32:32.631Z,5.26
2019-03-16T12:38:27.690Z,6.11
2019-03-16T12:44:22.645Z,4.51
2019-03-16T12:50:17.638Z,4.92
2019-03-16T12:56:12.657Z,4.15
2019-03-16T13:02:07.652Z,3.44
2019-03-16T13:08:02.674Z,3.44
2019-03-16T13:13:57.703Z,3.06
2019-03-16T13:19:52.663Z,3.34
2019-03-16T13:25:47.670Z,3.08
2019-03-16T13:31:42.688Z,3.29
2019-03-16T13:37:37.690Z,4.52
2019-03-16T13:43:32.680Z,3.64
2019-03-16T13:49:27.733Z,3.33
2019-03-16T13:55:22.709Z,3.59
2019-03-16T14:01:17.683Z,3.39
2019-03-16T14:07:12.695Z,3.52
2019-03-16T14:13:07.696Z,3.89
2019-03-16T14:19:02.700Z,3.2
2019-03-16T14:24:57.729Z,3.35
2019-03-16T14:30:52.716Z,2.93
2019-03-16T14:36:47.744Z,3.42
2019-03-16T14:42:42.746Z,3.71
2019-03-16T14:48:37.719Z,4.81
2019-03-16T14:54:32.729Z,3.52
2019-03-16T15:00:37.512Z,4.53
2019-03-16T15:06:22.730Z,4.18
2019-03-16T15:12:17.722Z,4.59
2019-03-16T15:18:12.756Z,4.23
2019-03-16T15:24:07.771Z,3.31
2019-03-16T15:30:02.723Z,3.54
2019-03-16T15:35:57.791Z,3.45
2019-03-16T15:41:52.800Z,4.21
2019-03-16T15:47:47.737Z,3.34
2019-03-16T15:53:42.801Z,3.75
2019-03-16T15:59:37.784Z,4.28
2019-03-16T16:05:32.776Z,4.24
2019-03-16T16:11:27.756Z,4.5
2019-03-16T16:17:22.794Z,9.03
2019-03-16T16:23:17.787Z,6.11
2019-03-16T16:29:12.783Z,5.91
2019-03-16T16:35:07.797Z,4.1
2019-03-16T16:41:02.789Z,4.46
2019-03-16T16:46:57.798Z,4.8
2019-03-16T16:52:52.871Z,5.03
2019-03-16T16:58:47.796Z,5.09
2019-03-16T17:04:42.803Z,4.47
2019-03-16T17:10:37.835Z,5.63
2019-03-16T17:16:32.871Z,5.29
2019-03-16T17:22:27.822Z,5.56
2019-03-16T17:28:22.801Z,6.19
2019-03-16T17:34:17.821Z,6.29
2019-03-16T17:40:12.858Z,15.01
2019-03-16T17:46:07.849Z,9.05
2019-03-16T17:52:02.827Z,8.27
2019-03-16T17:57:57.823Z,13.69
2019-03-16T18:03:52.844Z,8.32
2019-03-16T18:09:47.937Z,6.74
2019-03-16T18:15:42.854Z,5.73
2019-03-16T18:21:37.908Z,6.14
2019-03-16T18:27:32.861Z,10.81
2019-03-16T18:33:27.875Z,8.66
2019-03-16T18:39:22.877Z,5.94
2019-03-16T18:45:17.875Z,6.6
2019-03-16T18:51:12.897Z,7.06
2019-03-16T18:57:07.905Z,6.4
2019-03-16T19:03:02.933Z,6.75
2019-03-16T19:08:57.937Z,6.29
2019-03-16T19:14:52.895Z,6.42
2019-03-16T19:20:47.893Z,6.48
2019-03-16T19:26:42.876Z,6.48
2019-03-16T19:32:37.981Z,7.23
2019-03-16T19:38:32.912Z,11.19
2019-03-16T19:44:27.913Z,9.8
2019-03-16T19:50:22.920Z,10.28
2019-03-16T19:56:17.919Z,9.71
2019-03-16T20:02:12.947Z,9.78
2019-03-16T20:08:07.916Z,8.6
2019-03-16T20:14:02.928Z,7.7
2019-03-16T20:19:57.926Z,7.4
2019-03-16T20:25:52.923Z,6.65
2019-03-16T20:31:47.931Z,9.11
2019-03-16T20:37:42.969Z,7.77
2019-03-16T20:43:37.930Z,7.66
2019-03-16T20:49:32.946Z,6.9
2019-03-16T20:55:27.959Z,6.53
2019-03-16T21:01:23.127Z,7.43
2019-03-16T21:07:17.955Z,7.24
2019-03-16T21:13:12.980Z,7.71
2019-03-16T21:19:07.993Z,7.72
2019-03-16T21:25:02.991Z,7.14
2019-03-16T21:30:57.997Z,7.61
2019-03-16T21:36:53.002Z,7.57
2019-03-16T21:42:47.992Z,6.5
2019-03-16T21:48:43.011Z,6.5
2019-03-16T21:54:37.986Z,6.6
2019-03-16T22:00:32.986Z,7.04
2019-03-16T22:06:28.012Z,6.94
2019-03-16T22:12:23.018Z,6.47
2019-03-16T22:18:17.988Z,6.75
2019-03-16T22:24:13.043Z,6.69
2019-03-16T22:30:08.047Z,5.58
2019-03-16T22:36:03.023Z,6.2
2019-03-16T22:41:57.993Z,6.77
2019-03-16T22:47:53.024Z,6.45
2019-03-16T22:53:48.035Z,6.21
2019-03-16T22:59:43.098Z,5.95
2019-03-16T23:05:38.015Z,6.51
2019-03-16T23:11:33.039Z,5.88
2019-03-16T23:17:28.059Z,5.5
2019-03-16T23:23:23.030Z,4.88
2019-03-16T23:29:18.034Z,4.71
2019-03-16T23:35:13.066Z,4.65
2019-03-16T23:41:08.084Z,4.19
2019-03-16T23:47:03.051Z,3.53
2019-03-16T23:52:58.057Z,3.77
2019-03-16T23:58:53.044Z,3.53
